Time;durP1;ratioP1;P1;durP2;ratioP2;P2;SDS_P1;SDS_P2;PMS_P1;PMS_P2;Temp;Humidity;BMP_temperature;BMP_pressure;BME280_temperature;BME280_humidity;BME280_pressure;Samples;Min_cycle;Max_cycle;Signal;HPM_P1;HPM_P2
2023/04/03 00:00:08;;;;;;;11.07;5.53;;;;;;;3.60;100.00;92497.41;5075860;28;20110;-72
2023/04/03 00:02:36;;;;;;;11.27;5.90;;;;;;;3.64;100.00;92516.41;5078362;28;20044;-72
2023/04/03 00:05:04;;;;;;;12.30;6.05;;;;;;;3.57;100.00;92513.81;5089175;28;20051;-72
2023/04/03 00:07:31;;;;;;;14.30;7.13;;;;;;;3.53;100.00;92511.84;5089081;28;20101;-72
2023/04/03 00:09:57;;;;;;;15.85;8.85;;;;;;;3.48;100.00;92508.09;5088579;28;20053;-72
2023/04/03 00:12:24;;;;;;;16.30;8.77;;;;;;;3.53;100.00;92510.09;5089047;28;20113;-72
2023/04/03 00:14:51;;;;;;;19.60;9.50;;;;;;;3.53;100.00;92512.63;5088156;28;20090;-72
2023/04/03 00:17:17;;;;;;;22.35;9.88;;;;;;;3.52;100.00;92511.03;5088949;28;20463;-72
2023/04/03 00:19:46;;;;;;;17.92;8.10;;;;;;;3.44;100.00;92511.19;5088581;28;20044;-72
2023/04/03 00:22:12;;;;;;;14.73;7.50;;;;;;;3.44;100.00;92509.44;5089077;28;20044;-72
2023/04/03 00:24:39;;;;;;;12.55;7.10;;;;;;;3.43;100.00;92507.06;5087880;28;20093;-72
2023/04/03 00:27:06;;;;;;;16.50;7.45;;;;;;;3.43;100.00;92510.38;5087777;28;20117;-71
2023/04/03 00:29:32;;;;;;;15.27;8.10;;;;;;;3.27;100.00;92500.47;5088309;28;20044;-72
2023/04/03 00:32:02;;;;;;;14.43;7.90;;;;;;;3.34;100.00;92508.97;5086875;28;20040;-71
2023/04/03 00:34:29;;;;;;;15.00;7.03;;;;;;;3.38;100.00;92506.84;5068859;28;20455;-73
2023/04/03 00:36:58;;;;;;;13.88;7.80;;;;;;;3.31;100.00;92494.88;5068381;28;20121;-73
2023/04/03 00:39:24;;;;;;;15.90;7.70;;;;;;;3.39;100.00;92509.19;5067909;28;20098;-73
2023/04/03 00:41:51;;;;;;;16.50;7.88;;;;;;;3.38;100.00;92505.06;5077181;28;20044;-73
2023/04/03 00:44:23;;;;;;;15.55;7.40;;;;;;;3.34;100.00;92511.50;5088755;28;20513;-73
2023/04/03 00:46:49;;;;;;;12.70;6.90;;;;;;;3.26;100.00;92512.41;5088921;28;20048;-72
2023/04/03 00:49:16;;;;;;;11.43;6.57;;;;;;;3.26;100.00;92511.59;5088500;28;20562;-72
2023/04/03 00:51:43;;;;;;;13.20;6.32;;;;;;;3.23;100.00;92509.44;5088780;28;20121;-72
2023/04/03 00:54:12;;;;;;;15.75;7.80;;;;;;;3.18;100.00;92505.69;5090917;28;20052;-72
2023/04/03 00:56:41;;;;;;;15.95;7.97;;;;;;;3.20;100.00;92510.59;5092631;28;20048;-73
2023/04/03 00:59:12;;;;;;;16.30;8.23;;;;;;;3.22;100.00;92506.13;5092332;28;20056;-72
2023/04/03 01:01:39;;;;;;;17.85;8.45;;;;;;;3.16;100.00;92509.38;5092226;28;20047;-72
2023/04/03 01:04:06;;;;;;;19.35;9.90;;;;;;;3.18;100.00;92512.50;5092105;28;20040;-72
2023/04/03 01:06:37;;;;;;;20.95;12.35;;;;;;;3.17;100.00;92513.47;5092145;28;20048;-73
2023/04/03 01:09:05;;;;;;;22.60;12.55;;;;;;;3.14;100.00;92511.31;5078291;28;21611;-72
2023/04/03 01:11:33;;;;;;;19.23;12.10;;;;;;;3.04;100.00;92509.06;5092051;28;20140;-71
2023/04/03 01:14:01;;;;;;;19.70;12.57;;;;;;;2.99;100.00;92513.91;5071985;28;20548;-72
2023/04/03 01:16:30;;;;;;;23.77;12.75;;;;;;;2.97;100.00;92503.94;5080601;28;20052;-71
2023/04/03 01:18:58;;;;;;;19.98;12.43;;;;;;;2.96;100.00;92499.81;5071816;28;20048;-71
2023/04/03 01:21:52;;;;;;;19.88;11.98;;;;;;;2.99;100.00;92509.63;5071892;28;20053;-71
2023/04/03 01:24:32;;;;;;;19.50;11.63;;;;;;;3.00;100.00;92501.03;5081826;28;20051;-71
2023/04/03 01:27:02;;;;;;;22.02;11.77;;;;;;;3.01;100.00;92499.28;5091971;28;20385;-71
2023/04/03 01:29:28;;;;;;;23.33;13.75;;;;;;;2.98;100.00;92504.72;5091913;28;20109;-72
2023/04/03 01:31:58;;;;;;;23.25;12.90;;;;;;;2.96;100.00;92509.97;5091418;28;20048;-72
2023/04/03 01:34:26;;;;;;;21.63;12.13;;;;;;;2.86;100.00;92512.81;5092020;28;20101;-73
2023/04/03 01:36:53;;;;;;;16.92;8.95;;;;;;;2.83;100.00;92518.25;5091429;28;20044;-72
2023/04/03 01:39:20;;;;;;;19.90;9.18;;;;;;;2.75;100.00;92516.59;5091360;28;20051;-72
2023/04/03 01:41:47;;;;;;;16.67;8.75;;;;;;;2.76;100.00;92510.56;5091287;28;20050;-72
2023/04/03 01:44:15;;;;;;;17.13;9.30;;;;;;;2.72;100.00;92499.19;5091187;28;20538;-73
2023/04/03 01:46:42;;;;;;;17.30;8.93;;;;;;;2.83;100.00;92507.31;5072117;28;20048;-72
2023/04/03 01:49:10;;;;;;;16.85;9.10;;;;;;;2.72;100.00;92483.22;5091499;28;20982;-72
2023/04/03 01:51:37;;;;;;;21.02;9.65;;;;;;;2.86;100.00;92496.81;5091136;28;20085;-72
2023/04/03 01:54:05;;;;;;;22.45;10.02;;;;;;;2.88;100.00;92500.72;5090990;28;20508;-72
2023/04/03 01:56:31;;;;;;;21.58;10.80;;;;;;;2.84;100.00;92496.97;5091011;28;20488;-72
2023/04/03 01:58:58;;;;;;;20.55;10.32;;;;;;;2.84;100.00;92498.72;5091426;28;20454;-72
2023/04/03 02:01:26;;;;;;;16.92;8.50;;;;;;;2.74;100.00;92489.66;5090875;28;21535;-72
2023/04/03 02:03:53;;;;;;;16.10;8.60;;;;;;;2.74;100.00;92497.25;5090444;28;20044;-71
2023/04/03 02:06:21;;;;;;;18.70;8.98;;;;;;;2.71;100.00;92495.09;5090923;28;20048;-72
2023/04/03 02:08:48;;;;;;;18.50;8.15;;;;;;;2.57;100.00;92490.84;5091175;28;20052;-71
2023/04/03 02:11:15;;;;;;;15.38;8.10;;;;;;;2.61;100.00;92494.59;5091060;28;20041;-71
2023/04/03 02:13:42;;;;;;;17.73;7.68;;;;;;;2.52;100.00;92499.78;5076947;28;20040;-72
2023/04/03 02:16:10;;;;;;;15.98;7.72;;;;;;;2.52;100.00;92494.72;5070447;28;20057;-71
2023/04/03 02:18:37;;;;;;;17.02;7.68;;;;;;;2.53;100.00;92490.41;5084701;28;20052;-72
2023/04/03 02:21:05;;;;;;;21.08;10.10;;;;;;;2.50;100.00;92490.78;5090768;28;20039;-72
2023/04/03 02:23:35;;;;;;;20.73;10.73;;;;;;;2.44;100.00;92483.88;5088890;28;20043;-72
2023/04/03 02:26:07;;;;;;;20.02;9.20;;;;;;;2.38;100.00;92486.16;5070411;28;20131;-71
2023/04/03 02:28:35;;;;;;;14.82;8.18;;;;;;;2.30;100.00;92483.72;5087333;28;20040;-72
2023/04/03 02:31:02;;;;;;;17.90;8.32;;;;;;;2.24;100.00;92474.28;5090216;28;20139;-72
2023/04/03 02:33:28;;;;;;;15.70;8.00;;;;;;;2.33;100.00;92480.84;5090328;28;20052;-71
2023/04/03 02:35:56;;;;;;;16.27;7.82;;;;;;;2.37;100.00;92483.81;5090544;28;20040;-73
2023/04/03 02:38:23;;;;;;;15.30;7.38;;;;;;;2.25;100.00;92469.03;5090185;28;20048;-72
2023/04/03 02:40:55;;;;;;;16.25;8.07;;;;;;;2.31;100.00;92480.22;5082489;28;20456;-72
2023/04/03 02:43:22;;;;;;;16.73;8.10;;;;;;;2.31;100.00;92476.91;5085183;28;20051;-72
2023/04/03 02:45:48;;;;;;;17.05;6.97;;;;;;;2.29;100.00;92471.22;5090156;28;20488;-73
2023/04/03 02:48:16;;;;;;;17.98;7.43;;;;;;;2.33;100.00;92473.22;5090421;28;20047;-72
2023/04/03 02:50:43;;;;;;;13.88;7.30;;;;;;;2.37;100.00;92466.81;5090558;28;20040;-73
2023/04/03 02:53:10;;;;;;;15.88;7.07;;;;;;;2.38;100.00;92467.63;5090545;28;20491;-73
2023/04/03 02:55:36;;;;;;;16.05;7.53;;;;;;;2.31;100.00;92462.47;5090057;28;20109;-72
2023/04/03 02:58:04;;;;;;;14.10;6.82;;;;;;;2.29;100.00;92461.06;5089737;28;20434;-72
2023/04/03 03:00:31;;;;;;;15.73;7.05;;;;;;;2.26;100.00;92462.22;5090059;28;20077;-71
2023/04/03 03:02:58;;;;;;;15.07;7.10;;;;;;;2.26;100.00;92454.59;5090210;28;21051;-72
2023/04/03 03:05:25;;;;;;;12.13;6.97;;;;;;;2.20;100.00;92456.13;5089510;28;20471;-72
2023/04/03 03:07:52;;;;;;;15.85;7.13;;;;;;;2.23;100.00;92454.97;5090031;28;20048;-72
2023/04/03 03:10:18;;;;;;;14.45;7.35;;;;;;;2.22;100.00;92446.59;5089705;28;20049;-72
2023/04/03 03:12:45;;;;;;;17.00;7.38;;;;;;;2.20;100.00;92447.72;5089661;28;20653;-74
2023/04/03 03:15:13;;;;;;;13.63;7.78;;;;;;;2.20;100.00;92452.78;5073963;28;20118;-71
2023/04/03 03:17:40;;;;;;;15.32;7.90;;;;;;;2.07;100.00;92431.41;5078663;28;20047;-72
2023/04/03 03:20:08;;;;;;;17.35;7.75;;;;;;;2.16;100.00;92451.59;5089643;28;20102;-71
2023/04/03 03:22:35;;;;;;;15.65;7.35;;;;;;;2.18;100.00;92449.66;5089640;28;20048;-71
2023/04/03 03:25:02;;;;;;;17.58;7.97;;;;;;;2.08;100.00;92442.34;5089274;28;20539;-71
2023/04/03 03:27:28;;;;;;;17.52;7.78;;;;;;;1.99;100.00;92439.13;5089973;28;20106;-71
2023/04/03 03:29:55;;;;;;;15.60;8.10;;;;;;;2.09;100.00;92443.91;5082322;28;20040;-72
2023/04/03 03:32:23;;;;;;;18.25;8.57;;;;;;;1.99;100.00;92437.34;5089080;28;20052;-72
2023/04/03 03:34:50;;;;;;;17.67;8.80;;;;;;;2.02;100.00;92446.34;5089473;28;20457;-71
2023/04/03 03:37:17;;;;;;;13.30;6.97;;;;;;;2.05;100.00;92447.75;5089666;28;20043;-71
2023/04/03 03:39:43;;;;;;;14.68;8.70;;;;;;;2.08;100.00;92439.81;5088976;28;20099;-71
2023/04/03 03:42:11;;;;;;;17.80;8.80;;;;;;;2.04;100.00;92436.81;5089174;28;20044;-71
2023/04/03 03:44:40;;;;;;;16.13;8.63;;;;;;;2.07;100.00;92444.06;5089071;28;20131;-71
2023/04/03 03:47:09;;;;;;;18.23;9.60;;;;;;;2.06;100.00;92444.25;5089616;28;20044;-72
2023/04/03 03:49:37;;;;;;;19.55;11.10;;;;;;;2.10;100.00;92440.41;5089850;28;20085;-72
2023/04/03 03:52:04;;;;;;;22.65;10.82;;;;;;;2.13;100.00;92440.84;5089175;28;20123;-71
2023/04/03 03:54:31;;;;;;;19.58;10.27;;;;;;;2.14;100.00;92436.56;5089450;28;20044;-72
2023/04/03 03:56:58;;;;;;;20.63;10.40;;;;;;;2.13;100.00;92443.38;5089242;28;20052;-71
2023/04/03 03:59:24;;;;;;;19.73;9.88;;;;;;;2.13;100.00;92440.06;5088816;28;20048;-71
2023/04/03 04:01:51;;;;;;;16.48;8.27;;;;;;;2.11;100.00;92435.16;5089166;28;20097;-71
2023/04/03 04:04:18;;;;;;;13.70;7.13;;;;;;;2.10;100.00;92438.66;5089326;28;20105;-71
2023/04/03 04:06:46;;;;;;;14.00;7.13;;;;;;;1.98;100.00;92429.91;5088728;28;20143;-71
2023/04/03 04:09:13;;;;;;;15.48;8.25;;;;;;;2.08;100.00;92443.09;5089240;28;20048;-72
2023/04/03 04:11:40;;;;;;;14.20;7.95;;;;;;;2.15;100.00;92440.66;5089037;28;20048;-71
2023/04/03 04:14:07;;;;;;;19.05;10.15;;;;;;;2.06;100.00;92444.25;5078494;28;20098;-71
2023/04/03 04:16:34;;;;;;;17.02;9.20;;;;;;;2.10;100.00;92456.41;5068927;28;20040;-72
2023/04/03 04:19:00;;;;;;;18.52;10.35;;;;;;;2.13;100.00;92457.78;5068775;28;20464;-72
2023/04/03 04:21:27;;;;;;;18.15;9.95;;;;;;;2.14;100.00;92451.75;5081989;28;20090;-71
2023/04/03 04:23:55;;;;;;;19.52;10.05;;;;;;;2.13;100.00;92440.84;5068619;28;20497;-71
2023/04/03 04:26:22;;;;;;;15.68;9.63;;;;;;;2.11;100.00;92450.38;5074473;28;20455;-73
2023/04/03 04:28:49;;;;;;;20.60;12.00;;;;;;;2.19;100.00;92448.69;5092396;28;20043;-73
2023/04/03 04:31:15;;;;;;;22.63;12.70;;;;;;;2.22;100.00;92459.25;5092690;28;20508;-72
2023/04/03 04:33:42;;;;;;;22.88;12.20;;;;;;;2.26;100.00;92459.69;5092983;28;20040;-71
2023/04/03 04:36:09;;;;;;;22.58;12.32;;;;;;;2.30;100.00;92468.50;5092697;28;20048;-72
2023/04/03 04:38:36;;;;;;;21.08;11.15;;;;;;;2.36;100.00;92472.09;5087643;28;20048;-72
2023/04/03 04:41:04;;;;;;;20.35;10.40;;;;;;;2.38;100.00;92473.50;5072593;28;20045;-73
2023/04/03 04:43:30;;;;;;;16.20;10.05;;;;;;;2.45;100.00;92470.25;5072323;28;20040;-72
2023/04/03 04:46:05;;;;;;;17.55;9.10;;;;;;;2.47;100.00;92469.09;5072529;28;20098;-72
2023/04/03 04:48:32;;;;;;;14.52;7.75;;;;;;;2.49;100.00;92473.97;5072253;28;20447;-72
2023/04/03 04:50:59;;;;;;;15.57;9.23;;;;;;;2.50;100.00;92483.94;5072421;28;20049;-72
2023/04/03 04:53:25;;;;;;;16.15;8.75;;;;;;;2.55;100.00;92491.03;5077748;28;20048;-72
2023/04/03 04:55:52;;;;;;;21.02;9.40;;;;;;;2.56;100.00;92500.19;5092367;28;20492;-72
2023/04/03 04:58:20;;;;;;;23.02;11.18;;;;;;;2.34;100.00;92463.88;5092081;28;20411;-72
2023/04/03 05:00:47;;;;;;;34.72;14.70;;;;;;;2.60;100.00;92495.56;5092520;28;20138;-72
2023/04/03 05:03:14;;;;;;;30.58;14.57;;;;;;;2.43;100.00;92480.56;5092408;28;20045;-72
2023/04/03 05:05:41;;;;;;;35.00;17.63;;;;;;;2.63;100.00;92501.06;5091894;28;20500;-72
2023/04/03 05:08:08;;;;;;;51.40;24.80;;;;;;;2.75;100.00;92510.72;5092300;28;20074;-72
2023/04/03 05:10:35;;;;;;;65.53;38.60;;;;;;;2.79;100.00;92505.13;5092040;28;20043;-72
2023/04/03 05:13:02;;;;;;;53.80;26.75;;;;;;;2.85;100.00;92496.00;5091658;28;20484;-72
2023/04/03 05:15:30;;;;;;;43.97;22.88;;;;;;;2.98;100.00;92497.91;5092262;28;20052;-71
2023/04/03 05:17:57;;;;;;;36.30;19.88;;;;;;;3.08;100.00;92505.22;5092124;28;20564;-72
2023/04/03 05:20:24;;;;;;;37.67;20.55;;;;;;;3.14;100.00;92507.03;5091824;28;20052;-72
2023/04/03 05:22:51;;;;;;;34.97;18.52;;;;;;;3.13;100.00;92490.22;5091768;28;20101;-71
2023/04/03 05:25:18;;;;;;;37.28;18.77;;;;;;;3.30;100.00;92505.22;5091893;28;20052;-73
2023/04/03 05:27:45;;;;;;;36.40;18.35;;;;;;;3.37;100.00;92497.66;5091671;28;20040;-73
2023/04/03 05:30:12;;;;;;;35.10;18.27;;;;;;;3.50;100.00;92502.81;5091898;28;20641;-73
2023/04/03 05:32:41;;;;;;;37.00;18.95;;;;;;;3.58;100.00;92490.00;5069864;28;20045;-71
2023/04/03 05:35:08;;;;;;;39.85;23.05;;;;;;;3.69;100.00;92486.16;5077982;28;20048;-72
2023/04/03 05:37:35;;;;;;;42.70;24.13;;;;;;;3.73;100.00;92479.75;5091676;28;20052;-72
2023/04/03 05:40:02;;;;;;;27.90;18.95;;;;;;;3.54;100.00;92473.56;5090078;28;20052;-72
2023/04/03 05:42:29;;;;;;;32.47;19.95;;;;;;;3.69;100.00;92477.75;5091546;28;20377;-72
2023/04/03 05:44:56;;;;;;;33.33;22.63;;;;;;;3.79;100.00;92475.66;5091216;28;20044;-72
2023/04/03 05:47:23;;;;;;;30.10;18.15;;;;;;;3.97;100.00;92485.34;5094996;28;20455;-72
2023/04/03 05:49:51;;;;;;;30.65;19.42;;;;;;;4.09;100.00;92489.91;5093644;28;20048;-72
2023/04/03 05:52:22;;;;;;;31.95;20.23;;;;;;;4.16;100.00;92482.34;5091437;28;20112;-72
2023/04/03 05:54:49;;;;;;;29.83;18.48;;;;;;;4.24;100.00;92464.38;5091357;28;20044;-72
2023/04/03 05:57:16;;;;;;;32.28;18.70;;;;;;;4.37;100.00;92463.66;5091035;28;20090;-73
2023/04/03 05:59:43;;;;;;;33.90;18.48;;;;;;;4.43;100.00;92462.88;5090850;28;20059;-72
2023/04/03 06:02:12;;;;;;;32.28;19.30;;;;;;;4.55;100.00;92463.13;5090697;28;20059;-72
2023/04/03 06:04:39;;;;;;;31.98;19.80;;;;;;;4.65;100.00;92447.50;5090774;28;20040;-72
2023/04/03 06:07:08;;;;;;;44.00;20.55;;;;;;;4.77;100.00;92448.50;5090665;28;20048;-72
2023/04/03 06:09:35;;;;;;;35.95;21.88;;;;;;;4.86;100.00;92441.47;5090702;28;20058;-72
2023/04/03 06:12:03;;;;;;;50.03;31.25;;;;;;;4.91;100.00;92433.28;5090126;28;20056;-72
2023/04/03 06:14:29;;;;;;;36.13;25.55;;;;;;;4.99;100.00;92425.44;5090889;28;20044;-72
2023/04/03 06:16:56;;;;;;;43.08;26.00;;;;;;;5.21;100.00;92443.88;5090558;28;20454;-72
2023/04/03 06:19:23;;;;;;;38.28;23.48;;;;;;;5.31;100.00;92447.78;5090354;28;20048;-72
2023/04/03 06:21:50;;;;;;;50.58;23.15;;;;;;;5.45;100.00;92444.25;5090605;28;20052;-72
2023/04/03 06:24:19;;;;;;;34.05;21.52;;;;;;;5.56;100.00;92442.09;5090695;28;20449;-72
2023/04/03 06:26:46;;;;;;;35.78;20.67;;;;;;;5.63;100.00;92442.88;5090530;28;20048;-72
2023/04/03 06:29:16;;;;;;;36.20;21.02;;;;;;;5.69;100.00;92433.66;5090608;28;20093;-73
2023/04/03 06:31:43;;;;;;;34.55;21.23;;;;;;;5.79;100.00;92439.09;5090269;28;20040;-72
2023/04/03 06:34:12;;;;;;;40.55;19.20;;;;;;;5.95;100.00;92442.22;5090601;28;20465;-72
2023/04/03 06:36:39;;;;;;;39.30;18.38;;;;;;;6.09;100.00;92441.22;5090020;28;20079;-72
2023/04/03 06:39:07;;;;;;;36.88;18.20;;;;;;;6.14;100.00;92441.41;5090122;28;20095;-72
2023/04/03 06:41:35;;;;;;;40.45;17.30;;;;;;;6.27;100.00;92445.69;5090182;28;20101;-72
2023/04/03 06:44:03;;;;;;;34.20;16.75;;;;;;;6.37;100.00;92447.00;5090194;28;20101;-72
2023/04/03 06:46:30;;;;;;;35.22;18.38;;;;;;;6.33;100.00;92438.19;5089911;28;20047;-72
2023/04/03 06:48:56;;;;;;;33.53;16.77;;;;;;;6.50;100.00;92443.63;5090157;28;20076;-72
2023/04/03 06:51:25;;;;;;;31.75;17.58;;;;;;;6.66;100.00;92448.25;5089939;28;20604;-72
2023/04/03 06:53:54;;;;;;;34.70;19.50;;;;;;;6.75;100.00;92438.59;5090307;28;20040;-72
2023/04/03 06:56:22;;;;;;;32.40;18.92;;;;;;;7.03;100.00;92455.31;5089615;28;20127;-72
2023/04/03 06:58:51;;;;;;;37.33;19.35;;;;;;;7.19;100.00;92456.59;5090190;28;20101;-72
2023/04/03 07:01:19;;;;;;;31.45;18.08;;;;;;;7.26;100.00;92443.00;5089735;28;20087;-73
2023/04/03 07:03:47;;;;;;;29.77;17.15;;;;;;;7.54;100.00;92463.03;5089864;28;20495;-73
2023/04/03 07:06:15;;;;;;;34.40;18.67;;;;;;;7.72;100.00;92449.50;5089739;28;20048;-73
2023/04/03 07:08:42;;;;;;;41.15;20.45;;;;;;;7.90;100.00;92447.97;5089753;28;20081;-72
2023/04/03 07:11:10;;;;;;;33.50;17.60;;;;;;;8.09;100.00;92447.97;5089651;28;20043;-72
2023/04/03 07:13:37;;;;;;;36.13;18.20;;;;;;;8.25;100.00;92459.44;5090094;28;20397;-73
2023/04/03 07:16:07;;;;;;;38.63;21.80;;;;;;;8.33;100.00;92432.78;5089348;28;20047;-72
2023/04/03 07:18:34;;;;;;;32.47;17.52;;;;;;;8.54;100.00;92446.91;5089715;28;20044;-72
2023/04/03 07:21:01;;;;;;;31.60;16.10;;;;;;;8.66;100.00;92439.31;5089615;28;20048;-73
2023/04/03 07:23:28;;;;;;;19.55;10.43;;;;;;;8.80;100.00;92433.00;5089097;28;20868;-72
2023/04/03 07:25:56;;;;;;;18.35;9.05;;;;;;;8.84;100.00;92430.78;5089661;28;20044;-72
2023/04/03 07:28:24;;;;;;;10.50;5.05;;;;;;;8.86;100.00;92430.56;5088896;28;20492;-72
2023/04/03 07:30:52;;;;;;;11.63;6.65;;;;;;;9.11;100.00;92440.66;5089393;28;20090;-72
2023/04/03 07:33:24;;;;;;;11.93;7.43;;;;;;;9.20;100.00;92431.66;5088946;28;20538;-72
2023/04/03 07:35:51;;;;;;;10.98;5.82;;;;;;;9.41;100.00;92424.44;5089578;28;20041;-72
2023/04/03 07:38:18;;;;;;;13.68;6.30;;;;;;;9.55;98.56;92411.41;5089275;28;20093;-72
2023/04/03 07:40:47;;;;;;;16.25;8.57;;;;;;;9.71;98.51;92399.69;5088687;28;20060;-72
2023/04/03 07:43:14;;;;;;;13.85;7.10;;;;;;;9.78;97.61;92399.59;5089054;28;20059;-73
2023/04/03 07:45:41;;;;;;;9.90;5.53;;;;;;;9.61;96.63;92390.78;5089166;28;20054;-72
2023/04/03 07:48:08;;;;;;;12.60;6.68;;;;;;;9.42;100.00;92395.25;5088954;28;20044;-73
2023/04/03 07:50:36;;;;;;;15.32;8.27;;;;;;;9.57;100.00;92392.25;5089030;28;20056;-72
2023/04/03 07:53:03;;;;;;;11.52;6.72;;;;;;;9.86;97.49;92389.75;5088964;28;20044;-72
2023/04/03 07:55:30;;;;;;;12.18;6.32;;;;;;;9.84;95.01;92378.16;5089180;28;20044;-72
2023/04/03 07:57:57;;;;;;;6.05;3.05;;;;;;;9.78;85.87;92379.06;5088773;28;20089;-72
2023/04/03 08:00:24;;;;;;;7.38;3.80;;;;;;;9.73;88.59;92372.81;5088502;28;20571;-72
2023/04/03 08:02:51;;;;;;;4.47;2.30;;;;;;;9.82;88.72;92369.94;5093212;28;20093;-72
2023/04/03 08:05:19;;;;;;;5.15;2.45;;;;;;;10.00;87.20;92372.34;5095919;28;20047;-72
2023/04/03 08:07:47;;;;;;;6.60;2.45;;;;;;;9.83;86.44;92371.47;5095554;28;20061;-72
2023/04/03 08:10:15;;;;;;;5.20;2.60;;;;;;;9.68;82.59;92370.16;5093718;28;20048;-72
2023/04/03 08:12:42;;;;;;;6.57;3.17;;;;;;;9.91;84.38;92367.78;5095367;28;20052;-72
2023/04/03 08:15:09;;;;;;;9.20;5.07;;;;;;;9.67;83.30;92365.25;5096388;28;20089;-72
2023/04/03 08:17:36;;;;;;;3.83;2.50;;;;;;;9.64;82.75;92361.38;5095370;28;20492;-71
2023/04/03 08:20:04;;;;;;;4.60;3.20;;;;;;;9.66;81.61;92361.91;5093814;28;20048;-71
2023/04/03 08:22:31;;;;;;;6.70;5.05;;;;;;;9.56;82.36;92357.34;5095385;28;20043;-72
2023/04/03 08:25:01;;;;;;;3.53;2.05;;;;;;;9.66;83.05;92354.22;5094860;28;20048;-71
2023/04/03 08:27:28;;;;;;;4.95;4.00;;;;;;;9.52;82.18;92334.94;5095481;28;20044;-71
2023/04/03 08:29:55;;;;;;;3.45;1.80;;;;;;;9.47;82.48;92340.75;5088122;28;20549;-72
2023/04/03 08:32:22;;;;;;;3.30;1.90;;;;;;;9.59;84.02;92344.06;5075153;28;20048;-72
2023/04/03 08:34:48;;;;;;;2.75;1.50;;;;;;;9.73;82.96;92351.53;5090228;28;20541;-72
2023/04/03 08:37:17;;;;;;;3.72;1.75;;;;;;;9.49;82.24;92331.03;5095500;28;20105;-72
2023/04/03 08:39:44;;;;;;;3.65;2.47;;;;;;;9.58;83.54;92336.63;5095244;28;20582;-72
2023/04/03 08:42:19;;;;;;;3.15;1.73;;;;;;;9.61;81.58;92333.59;5095305;28;20557;-72
2023/04/03 08:44:53;;;;;;;3.50;2.00;;;;;;;9.62;82.08;92335.16;5095519;28;20093;-72
2023/04/03 08:47:25;;;;;;;5.53;2.35;;;;;;;9.65;84.23;92305.72;5076925;28;20327;-72
2023/04/03 08:49:56;;;;;;;2.63;2.00;;;;;;;9.75;80.35;92321.31;5082985;28;20125;-72
2023/04/03 08:52:33;;;;;;;2.63;1.80;;;;;;;9.86;80.72;92312.81;5095067;28;20047;-72
2023/04/03 08:55:02;;;;;;;3.25;2.28;;;;;;;10.13;80.93;92311.50;5095642;28;20040;-72
2023/04/03 08:57:35;;;;;;;2.90;2.00;;;;;;;9.89;79.77;92309.00;5081636;28;20110;-72
2023/04/03 09:00:07;;;;;;;3.90;1.60;;;;;;;10.11;77.19;92308.38;5082189;28;20036;-72
2023/04/03 09:02:42;;;;;;;1.90;1.00;;;;;;;10.26;77.07;92306.09;5095377;28;20044;-72
2023/04/03 09:05:13;;;;;;;2.90;2.05;;;;;;;10.07;76.81;92282.41;5095208;28;20093;-72
2023/04/03 09:07:45;;;;;;;2.17;1.15;;;;;;;10.09;75.01;92305.28;5095494;28;20048;-72
2023/04/03 09:10:14;;;;;;;2.55;1.30;;;;;;;10.09;73.56;92310.41;5095327;28;20097;-72
2023/04/03 09:12:45;;;;;;;2.90;0.90;;;;;;;10.00;73.05;92305.63;5095303;28;20125;-72
2023/04/03 09:15:20;;;;;;;1.98;1.30;;;;;;;10.10;74.15;92288.88;5092495;28;20565;-72
2023/04/03 09:18:05;;;;;;;2.47;1.00;;;;;;;10.13;74.21;92294.31;5092081;28;20497;-72
2023/04/03 09:20:43;;;;;;;3.42;1.67;;;;;;;10.03;73.12;92292.34;5090961;28;20044;-72
2023/04/03 09:23:27;;;;;;;2.72;1.70;;;;;;;10.20;74.65;92288.28;5091736;28;20044;-72
2023/04/03 09:25:59;;;;;;;2.45;1.63;;;;;;;10.24;73.85;92287.56;5091884;28;20052;-72
2023/04/03 09:28:28;;;;;;;3.33;2.15;;;;;;;10.25;74.46;92286.59;5091684;28;20074;-72
2023/04/03 09:30:55;;;;;;;3.00;1.98;;;;;;;10.19;73.89;92300.34;5091929;28;20036;-72
2023/04/03 09:33:23;;;;;;;3.92;2.28;;;;;;;10.00;75.25;92285.09;5091207;28;20097;-72
2023/04/03 09:35:51;;;;;;;5.82;2.90;;;;;;;10.09;75.60;92284.75;5091831;28;20044;-72
2023/04/03 09:38:20;;;;;;;4.57;2.67;;;;;;;10.01;77.98;92267.94;5091282;28;20073;-72
2023/04/03 09:40:49;;;;;;;4.50;2.42;;;;;;;10.19;76.78;92255.91;5091715;28;20048;-72
2023/04/03 09:43:25;;;;;;;6.63;3.35;;;;;;;10.35;75.33;92285.97;5091149;28;20558;-72
2023/04/03 09:45:55;;;;;;;68.05;34.83;;;;;;;10.02;76.70;92293.38;5091596;28;20044;-72
2023/04/03 09:48:23;;;;;;;5.95;4.18;;;;;;;10.36;77.98;92277.25;5091216;28;20083;-72
2023/04/03 09:50:59;;;;;;;7.72;4.43;;;;;;;10.27;76.75;92273.50;5091380;28;20515;-72
2023/04/03 09:53:36;;;;;;;7.28;4.28;;;;;;;10.31;76.92;92271.28;5090888;28;20500;-72
2023/04/03 09:56:07;;;;;;;9.02;5.18;;;;;;;10.41;76.73;92269.66;5090991;28;20048;-72
2023/04/03 09:58:40;;;;;;;9.65;5.65;;;;;;;10.67;75.68;92262.38;5091441;28;20076;-72
2023/04/03 10:01:23;;;;;;;7.63;4.22;;;;;;;10.58;75.71;92266.34;5090951;28;20050;-72
2023/04/03 10:04:04;;;;;;;6.03;3.33;;;;;;;10.66;75.56;92271.09;5091099;28;20567;-72
2023/04/03 10:06:35;;;;;;;4.65;2.13;;;;;;;10.74;73.94;92259.66;5090875;28;20048;-72
2023/04/03 10:09:04;;;;;;;5.40;3.55;;;;;;;10.65;74.85;92249.00;5090573;28;20506;-72
2023/04/03 10:11:31;;;;;;;6.10;2.65;;;;;;;10.56;73.92;92264.00;5090945;28;20052;-72
2023/04/03 10:13:59;;;;;;;30.38;14.35;;;;;;;10.48;74.86;92263.59;5090555;28;20044;-72
2023/04/03 10:16:37;;;;;;;8.70;5.75;;;;;;;10.41;77.11;92261.16;5090732;28;20492;-72
2023/04/03 10:19:26;;;;;;;6.15;3.63;;;;;;;10.50;74.86;92259.81;5090226;28;20042;-72
2023/04/03 10:21:58;;;;;;;6.32;3.15;;;;;;;10.56;74.66;92258.09;5090898;28;20407;-72
2023/04/03 10:24:33;;;;;;;6.38;4.32;;;;;;;10.36;76.30;92251.59;5091042;28;20446;-72
2023/04/03 10:27:08;;;;;;;5.68;3.80;;;;;;;10.39;75.75;92252.91;5090426;28;20040;-72
2023/04/03 10:29:43;;;;;;;5.67;3.40;;;;;;;10.39;77.03;92253.72;5090616;28;20047;-72
2023/04/03 10:32:34;;;;;;;5.70;3.30;;;;;;;10.39;76.61;92252.91;5090499;28;20337;-72
2023/04/03 10:35:09;;;;;;;19.05;10.52;;;;;;;10.36;76.00;92246.47;5090028;28;20056;-72
2023/04/03 10:37:51;;;;;;;8.68;4.40;;;;;;;10.46;74.96;92243.28;5090572;28;20040;-72
2023/04/03 10:40:31;;;;;;;6.55;3.25;;;;;;;10.43;75.28;92254.03;5090487;28;20085;-72
2023/04/03 10:43:07;;;;;;;5.03;3.10;;;;;;;10.46;74.98;92227.13;5090485;28;20052;-72
2023/04/03 10:45:51;;;;;;;3.00;1.67;;;;;;;10.53;75.09;92232.88;5090248;28;20093;-72
2023/04/03 10:48:34;;;;;;;4.22;1.70;;;;;;;10.48;74.76;92233.59;5089768;28;20055;-72
2023/04/03 10:51:13;;;;;;;3.15;1.67;;;;;;;10.45;74.75;92254.59;5089930;28;20054;-72
2023/04/03 10:53:45;;;;;;;3.10;1.77;;;;;;;10.51;75.13;92251.09;5089905;28;20648;-72
2023/04/03 10:56:18;;;;;;;3.10;1.75;;;;;;;10.59;75.33;92249.91;5090408;28;20040;-72
2023/04/03 10:58:49;;;;;;;3.42;2.05;;;;;;;10.48;75.24;92246.44;5090299;28;20519;-72
2023/04/03 11:01:21;;;;;;;5.50;1.70;;;;;;;10.56;75.09;92225.50;5089939;28;20492;-72
2023/04/03 11:03:54;;;;;;;2.85;1.52;;;;;;;10.69;75.59;92241.59;5090244;28;20139;-72
2023/04/03 11:06:24;;;;;;;3.28;1.75;;;;;;;10.54;75.43;92221.59;5089912;28;20346;-72
2023/04/03 11:08:56;;;;;;;27.00;9.38;;;;;;;10.51;76.42;92248.50;5090074;28;20052;-72
2023/04/03 11:11:27;;;;;;;39.20;14.23;;;;;;;10.43;78.55;92246.34;5089633;28;20483;-72
2023/04/03 11:13:59;;;;;;;22.17;8.75;;;;;;;10.35;78.75;92249.25;5089520;28;20473;-72
2023/04/03 11:16:29;;;;;;;9.98;4.18;;;;;;;10.29;79.22;92238.91;5089744;28;20498;-72
2023/04/03 11:19:01;;;;;;;4.40;3.25;;;;;;;10.18;80.70;92241.53;5089599;28;20093;-72
2023/04/03 11:21:34;;;;;;;6.70;5.97;;;;;;;10.14;81.98;92236.09;5089446;28;20131;-72
2023/04/03 11:24:07;;;;;;;5.72;5.13;;;;;;;10.13;82.47;92227.59;5089645;28;20471;-72
2023/04/03 11:26:40;;;;;;;4.40;2.95;;;;;;;9.95;84.29;92235.50;5089789;28;20058;-72
2023/04/03 11:29:12;;;;;;;4.63;2.25;;;;;;;9.93;86.19;92220.34;5089966;28;20172;-72
2023/04/03 11:31:51;;;;;;;3.88;2.50;;;;;;;9.83;88.21;92227.84;5089463;28;20044;-71
2023/04/03 11:34:34;;;;;;;4.72;2.38;;;;;;;9.68;90.59;92239.38;5089245;28;20172;-71